Time;durP1;ratioP1;P1;durP2;ratioP2;P2;SDS_P1;SDS_P2;PMS_P1;PMS_P2;Temp;Humidity;BMP_temperature;BMP_pressure;BME280_temperature;BME280_humidity;BME280_pressure;Samples;Min_cycle;Max_cycle;Signal;HPM_P1;HPM_P2
2022/10/30 10:24:54;;;;;;;23.15;17.83;;;22.00;99.90;;;;;;5686438;23;19930;-91
2022/10/30 10:28:00;;;;;;;19.35;17.40;;;22.00;99.90;;;;;;4900395;29;20151;-91
2022/10/30 10:34:47;;;;;;;27.20;18.52;;;21.90;99.90;;;;;;4923056;29;20119;-92
2022/10/30 10:37:46;;;;;;;21.23;17.80;;;22.00;99.90;;;;;;4904645;29;20035;-93
2022/10/30 10:40:59;;;;;;;20.15;17.40;;;22.00;99.90;;;;;;4902336;29;20043;-91
2022/10/30 10:43:48;;;;;;;23.73;17.85;;;22.00;99.90;;;;;;4845417;29;20042;-91
2022/10/30 10:46:17;;;;;;;18.75;16.63;;;22.00;99.90;;;;;;4857358;24;20056;-92
2022/10/30 10:48:53;;;;;;;20.25;18.17;;;22.10;99.90;;;;;;4882906;29;20093;-93
2022/10/30 10:51:21;;;;;;;26.55;18.83;;;22.20;99.90;;;;;;4868068;29;20032;-93
2022/10/30 10:54:28;;;;;;;21.38;17.75;;;22.30;99.90;;;;;;4882363;29;20383;-93
2022/10/30 10:58:26;;;;;;;;;;;;;;;;;;;;;
2022/10/30 11:08:55;;;;;;;20.63;18.65;;;22.20;99.90;;;;;;5136152;23;20056;-93
2022/10/30 11:12:53;;;;;;;20.90;18.67;;;22.20;99.90;;;;;;4905162;29;20040;-94
2022/10/30 11:19:12;;;;;;;20.30;18.15;;;22.20;99.90;;;;;;5099744;23;20062;-91
2022/10/30 11:21:47;;;;;;;19.88;17.88;;;22.10;99.90;;;;;;4885820;29;20553;-94
2022/10/30 12:04:31;;;;;;;20.10;18.17;;;22.30;99.90;;;;;;5761536;23;20078;-93
2022/10/30 12:10:57;;;;;;;21.92;19.80;;;22.10;99.90;;;;;;5398829;23;20063;-92
2022/10/30 12:13:36;;;;;;;20.60;18.67;;;22.00;99.90;;;;;;4907570;29;20076;-92
2022/10/30 12:24:14;;;;;;;21.05;17.67;;;22.10;99.90;;;;;;5356142;23;20066;-91
2022/10/30 12:26:47;;;;;;;17.95;16.35;;;22.00;99.90;;;;;;4924242;29;20028;-92
2022/10/30 12:29:27;;;;;;;18.38;16.45;;;22.00;99.90;;;;;;4915744;29;20039;-92
2022/10/30 12:32:08;;;;;;;22.60;18.10;;;22.00;99.90;;;;;;4920901;29;20036;-92
2022/10/30 12:34:56;;;;;;;22.23;16.75;;;21.90;99.90;;;;;;4923211;29;20473;-91
2022/10/30 12:37:39;;;;;;;18.67;16.77;;;21.90;99.90;;;;;;4924133;29;20035;-91
2022/10/30 12:40:26;;;;;;;19.20;17.17;;;22.10;99.90;;;;;;4930019;29;20389;-92
2022/10/30 12:43:39;;;;;;;18.90;16.92;;;22.10;99.90;;;;;;4925930;29;20027;-92
2022/10/30 12:46:20;;;;;;;20.50;16.75;;;22.10;99.90;;;;;;4834756;29;20044;-92
2022/10/30 12:49:18;;;;;;;18.33;16.10;;;22.00;99.90;;;;;;4836401;29;20140;-92
2022/10/30 12:52:40;;;;;;;19.25;16.35;;;21.90;99.90;;;;;;4852075;29;20041;-92
2022/10/30 12:55:19;;;;;;;17.57;15.57;;;21.90;99.90;;;;;;4834218;29;20065;-92
2022/10/30 12:57:56;;;;;;;18.02;16.13;;;22.00;99.90;;;;;;4833990;29;20041;-94
2022/10/30 13:00:28;;;;;;;18.25;16.52;;;22.00;99.90;;;;;;4832150;29;20102;-93
2022/10/30 13:03:04;;;;;;;18.27;16.30;;;21.80;99.90;;;;;;4831763;29;20579;-91
2022/10/30 13:06:00;;;;;;;19.88;16.17;;;21.90;99.90;;;;;;4831672;29;20042;-91
2022/10/30 13:08:41;;;;;;;17.05;15.32;;;21.90;99.90;;;;;;4829880;29;20033;-93
2022/10/30 13:11:32;;;;;;;18.63;16.80;;;22.00;99.90;;;;;;4832009;29;20052;-91
2022/10/30 13:14:01;;;;;;;18.92;17.10;;;22.10;99.90;;;;;;4831433;29;20452;-92
2022/10/30 13:16:32;;;;;;;20.52;17.30;;;22.00;99.90;;;;;;4831219;29;20037;-93
2022/10/30 13:19:02;;;;;;;18.02;16.35;;;21.80;99.90;;;;;;4831102;29;20033;-92
2022/10/30 13:22:02;;;;;;;17.50;15.75;;;21.90;99.90;;;;;;4830855;29;20503;-92
2022/10/30 13:24:31;;;;;;;17.95;16.35;;;21.90;99.90;;;;;;4921310;29;20051;-92
2022/10/30 13:27:33;;;;;;;17.02;15.32;;;21.90;99.90;;;;;;4921293;29;20043;-92
2022/10/30 13:30:02;;;;;;;17.90;16.17;;;21.90;99.90;;;;;;4921538;29;20027;-91
2022/10/30 13:32:31;;;;;;;20.77;16.10;;;21.80;99.90;;;;;;4921447;29;20031;-90
2022/10/30 13:35:01;;;;;;;19.67;17.13;;;21.80;99.90;;;;;;4921496;29;20038;-91
2022/10/30 13:37:59;;;;;;;18.20;16.35;;;21.80;99.90;;;;;;4921026;29;20126;-92
2022/10/30 14:10:41;;;;;;;19.50;17.48;;;21.20;99.90;;;;;;4859916;29;20052;-93
2022/10/30 14:13:43;;;;;;;21.27;17.08;;;21.10;99.90;;;;;;4861202;29;20037;-93
2022/10/30 14:17:02;;;;;;;17.77;15.98;;;21.10;99.90;;;;;;4873182;29;20029;-94
2022/10/30 14:19:28;;;;;;;22.55;16.95;;;21.00;99.90;;;;;;4895587;29;20033;-91
2022/10/30 14:22:03;;;;;;;18.77;16.15;;;21.10;99.90;;;;;;4864094;29;20403;-91
2022/10/30 14:24:33;;;;;;;21.35;16.45;;;21.00;99.90;;;;;;4880156;29;20029;-91
2022/10/30 14:27:02;;;;;;;19.60;16.08;;;20.90;99.90;;;;;;4864190;29;20036;-93
2022/10/30 14:29:45;;;;;;;19.83;16.60;;;20.90;99.90;;;;;;4864554;29;20085;-94
2022/10/30 14:32:17;;;;;;;17.52;15.75;;;20.90;99.90;;;;;;4879481;29;20068;-92
2022/10/30 14:34:53;;;;;;;33.80;21.15;;;20.80;99.90;;;;;;4880021;29;20033;-93
2022/10/30 14:37:26;;;;;;;20.90;16.65;;;20.90;99.90;;;;;;4864063;29;20088;-93
2022/10/30 14:39:55;;;;;;;17.70;15.82;;;20.80;99.90;;;;;;4880818;29;20033;-94
2022/10/30 14:42:52;;;;;;;17.00;15.48;;;20.70;99.90;;;;;;4879934;29;20041;-91
2022/10/30 14:45:26;;;;;;;21.25;15.98;;;20.70;99.90;;;;;;4879310;29;20025;-92
2022/10/30 14:48:21;;;;;;;17.88;15.98;;;20.60;99.90;;;;;;4879521;29;20040;-92
2022/10/30 14:51:10;;;;;;;18.65;16.40;;;20.60;99.90;;;;;;4864119;29;20045;-91
2022/10/30 14:54:17;;;;;;;18.92;16.38;;;20.50;99.90;;;;;;4864149;29;20033;-92
2022/10/30 14:56:49;;;;;;;19.42;15.90;;;20.50;99.90;;;;;;4879199;29;20033;-92
2022/10/30 14:59:16;;;;;;;16.85;15.32;;;20.40;99.90;;;;;;4879475;29;20029;-91
2022/10/30 15:02:04;;;;;;;18.17;16.17;;;20.50;99.90;;;;;;4863935;29;20041;-91
2022/10/30 15:04:53;;;;;;;17.15;15.55;;;20.40;99.90;;;;;;4879428;29;20389;-92
2022/10/30 15:07:23;;;;;;;18.15;16.30;;;20.40;99.90;;;;;;4863949;29;20039;-90
2022/10/30 15:10:18;;;;;;;17.40;15.57;;;20.40;99.90;;;;;;4879153;29;20094;-92
2022/10/30 15:13:19;;;;;;;19.42;16.38;;;20.40;99.90;;;;;;4865426;29;20037;-91
2022/10/30 15:16:01;;;;;;;17.70;16.02;;;20.30;99.90;;;;;;4905533;23;20051;-92
2022/10/30 15:21:57;;;;;;;19.10;16.35;;;20.20;99.90;;;;;;4965965;23;20064;-91
2022/10/30 15:24:41;;;;;;;21.65;17.15;;;20.20;99.90;;;;;;4921757;29;20040;-92
2022/10/30 15:30:38;;;;;;;20.58;18.35;;;20.10;99.90;;;;;;4897607;29;20306;-94
2022/10/30 15:39:40;;;;;;;24.60;19.45;;;19.80;99.90;;;;;;4924938;29;20039;-91
2022/10/30 15:42:51;;;;;;;26.25;19.77;;;19.70;99.90;;;;;;4813591;29;20046;-92
2022/10/30 15:45:35;;;;;;;25.13;18.20;;;19.60;99.90;;;;;;4796390;29;20066;-92
2022/10/30 15:48:29;;;;;;;29.00;18.23;;;19.50;99.90;;;;;;4832685;29;20038;-93
2022/10/30 15:51:13;;;;;;;30.23;19.17;;;19.40;99.90;;;;;;4832712;29;20037;-91
2022/10/30 15:53:43;;;;;;;30.90;20.27;;;19.40;99.90;;;;;;4833062;29;20546;-93
2022/10/30 15:56:24;;;;;;;30.83;20.48;;;19.30;99.90;;;;;;4832400;29;20033;-92
2022/10/30 15:58:54;;;;;;;38.03;20.52;;;19.30;99.90;;;;;;4832542;29;20025;-91
2022/10/30 16:01:42;;;;;;;35.70;22.50;;;19.20;99.90;;;;;;4832791;29;20037;-92
2022/10/30 16:04:18;;;;;;;33.75;20.92;;;19.10;99.90;;;;;;4832832;29;20602;-90
2022/10/30 16:06:54;;;;;;;37.75;22.17;;;19.10;99.90;;;;;;4832748;29;20116;-93
2022/10/30 16:16:19;;;;;;;43.92;24.42;;;18.90;99.90;;;;;;4988782;23;19923;-91
2022/10/30 16:19:28;;;;;;;48.53;26.15;;;18.90;99.90;;;;;;4924042;29;20047;-92
2022/10/30 16:22:27;;;;;;;54.05;27.65;;;18.80;99.90;;;;;;4923272;29;20052;-91
2022/10/30 16:25:15;;;;;;;51.03;26.75;;;18.70;99.90;;;;;;4925485;29;20461;-92
2022/10/30 16:27:55;;;;;;;53.45;27.38;;;18.70;99.90;;;;;;4900354;29;20048;-90
2022/10/30 16:30:28;;;;;;;55.85;29.30;;;18.60;99.90;;;;;;4868910;29;20041;-92
2022/10/30 16:33:24;;;;;;;55.03;29.25;;;18.50;99.90;;;;;;4869411;29;20037;-91
2022/10/30 16:36:02;;;;;;;50.42;28.30;;;18.50;99.90;;;;;;4858059;29;20202;-92
2022/10/30 16:38:45;;;;;;;60.95;30.85;;;18.40;99.90;;;;;;4870927;29;20045;-91
2022/10/30 16:41:27;;;;;;;63.10;32.58;;;18.40;99.90;;;;;;4868270;29;20044;-94
2022/10/30 16:44:37;;;;;;;;;;;;;;;;;;;;;
2022/10/30 16:47:38;;;;;;;60.90;32.10;;;18.30;99.90;;;;;;4826471;29;20046;-92
2022/10/30 16:50:24;;;;;;;63.75;33.80;;;18.30;99.90;;;;;;4809137;29;20046;-92
2022/10/30 16:53:36;;;;;;;68.13;34.25;;;18.20;99.90;;;;;;4824664;29;20053;-93
2022/10/30 16:56:57;;;;;;;;;;;;;;;;;;;;;
2022/10/30 16:59:45;;;;;;;75.32;34.75;;;18.20;99.90;;;;;;4859224;29;20046;-92
2022/10/30 17:02:29;;;;;;;72.38;35.10;;;18.20;99.90;;;;;;4844380;29;20500;-91
2022/10/30 17:05:10;;;;;;;70.47;36.10;;;18.10;99.90;;;;;;4844033;29;20045;-92
2022/10/30 17:08:13;;;;;;;70.72;36.17;;;18.10;99.90;;;;;;4844130;29;20037;-91
2022/10/30 19:31:56;;;;;;;102.75;50.38;;;17.30;99.90;;;;;;4862217;29;20080;-93
2022/10/30 19:35:11;;;;;;;101.68;48.00;;;17.30;99.90;;;;;;4872830;29;20112;-91
2022/10/30 19:37:56;;;;;;;94.38;49.97;;;17.20;99.90;;;;;;4777401;30;20044;-93
2022/10/30 19:40:56;;;;;;;94.80;48.05;;;17.20;99.90;;;;;;4761387;30;20059;-92
2022/10/30 19:43:22;;;;;;;96.38;47.75;;;17.20;99.90;;;;;;4760636;30;20514;-92
2022/10/30 19:46:03;;;;;;;91.03;45.38;;;17.10;99.90;;;;;;4827113;24;20425;-92
2022/10/30 19:48:42;;;;;;;86.20;44.72;;;17.20;99.90;;;;;;4953007;24;20143;-90
2022/10/30 19:54:50;;;;;;;92.00;45.80;;;17.10;99.90;;;;;;4944860;29;20084;-92
2022/10/30 19:58:04;;;;;;;;;;;;;;;;;;;;;
2022/10/30 20:08:16;;;;;;;82.32;42.30;;;17.10;99.90;;;;;;5395346;23;20523;-91
2022/10/30 20:20:48;;;;;;;87.22;42.72;;;17.00;99.90;;;;;;4938964;29;20070;-91
2022/10/30 20:23:15;;;;;;;94.50;43.97;;;16.90;99.90;;;;;;4923733;29;20038;-92
2022/10/30 20:25:42;;;;;;;88.68;42.83;;;16.90;99.90;;;;;;4920218;29;20098;-91
2022/10/30 20:28:21;;;;;;;97.18;47.50;;;16.80;99.90;;;;;;4919687;29;20115;-91
2022/10/30 20:30:52;;;;;;;95.95;46.08;;;16.80;99.90;;;;;;4919154;29;20481;-92
2022/10/30 20:33:20;;;;;;;111.90;50.75;;;16.70;99.90;;;;;;4919777;29;20032;-91
2022/10/30 20:35:49;;;;;;;113.07;51.90;;;16.60;99.90;;;;;;4903678;29;20111;-91
2022/10/30 20:38:21;;;;;;;113.78;53.55;;;16.60;99.90;;;;;;4903769;29;20064;-90
2022/10/30 20:40:48;;;;;;;108.95;51.45;;;16.60;99.90;;;;;;4951237;23;20513;-92
2022/10/30 20:43:19;;;;;;;110.18;51.88;;;16.60;99.90;;;;;;4905142;29;20115;-88
2022/10/30 20:45:46;;;;;;;118.68;51.65;;;16.60;99.90;;;;;;4919267;29;20029;-90
2022/10/30 20:48:13;;;;;;;118.55;52.38;;;16.60;99.90;;;;;;4904316;29;20032;-92
2022/10/30 20:50:40;;;;;;;120.68;56.45;;;16.60;99.90;;;;;;4903869;29;20042;-92
2022/10/30 20:53:16;;;;;;;122.85;54.15;;;16.60;99.90;;;;;;4907344;29;20020;-92
2022/10/30 20:55:43;;;;;;;120.20;54.40;;;16.60;99.90;;;;;;4922794;29;20035;-92
2022/10/30 20:58:12;;;;;;;111.78;52.00;;;16.60;99.90;;;;;;4906686;29;20024;-94
2022/10/30 21:00:39;;;;;;;124.60;54.60;;;16.60;99.90;;;;;;4922696;29;20400;-96
2022/10/30 21:03:13;;;;;;;117.68;52.58;;;16.50;99.90;;;;;;4908250;29;20028;-91
2022/10/30 21:05:42;;;;;;;110.93;52.55;;;16.50;99.90;;;;;;4923430;29;20035;-91
2022/10/30 21:08:28;;;;;;;108.10;52.35;;;16.60;99.90;;;;;;4906432;29;20063;-92
2022/10/30 21:11:02;;;;;;;113.03;51.90;;;16.60;99.90;;;;;;4922161;29;20039;-91
2022/10/30 21:13:34;;;;;;;105.15;52.28;;;16.60;99.90;;;;;;4922060;29;20054;-95
2022/10/30 21:16:07;;;;;;;109.28;51.70;;;16.60;99.90;;;;;;4921752;29;20040;-94
2022/10/30 21:18:37;;;;;;;103.38;50.40;;;16.60;99.90;;;;;;4907044;29;20082;-92
2022/10/30 21:21:20;;;;;;;;;;;;;;;;;;;;;
2022/10/30 21:23:56;;;;;;;101.05;50.45;;;16.60;99.90;;;;;;4922057;29;20032;-93
2022/10/30 21:26:26;;;;;;;112.03;51.00;;;16.50;99.90;;;;;;4921017;29;20036;-92
2022/10/30 21:29:16;;;;;;;121.35;53.53;;;16.50;99.90;;;;;;4906556;29;20110;-94
2022/10/30 21:31:58;;;;;;;112.63;50.70;;;16.50;99.90;;;;;;4893540;29;20046;-95
2022/10/30 21:34:30;;;;;;;111.95;50.45;;;16.50;99.90;;;;;;4908750;29;20037;-92
2022/10/30 21:36:59;;;;;;;115.95;52.33;;;16.50;99.90;;;;;;4907749;29;20035;-94
2022/10/30 21:39:32;;;;;;;116.78;53.10;;;16.50;99.90;;;;;;4907524;29;20119;-93
2022/10/30 21:42:19;;;;;;;119.40;54.13;;;16.60;99.90;;;;;;4907095;29;20056;-94
2022/10/30 21:44:45;;;;;;;125.15;56.92;;;16.60;99.90;;;;;;4894089;29;20059;-94
2022/10/30 21:47:26;;;;;;;121.97;55.60;;;16.50;99.90;;;;;;4906055;29;20075;-93
2022/10/30 21:50:10;;;;;;;127.20;57.60;;;16.50;99.90;;;;;;4907006;29;20040;-93
2022/10/30 21:53:19;;;;;;;;;;;;;;;;;;;;;
2022/10/30 21:56:29;;;;;;;140.18;57.45;;;16.50;99.90;;;;;;4864211;29;20041;-93
2022/10/30 21:59:15;;;;;;;136.70;58.15;;;16.50;99.90;;;;;;4779229;29;20039;-94
2022/10/30 22:04:35;;;;;;;144.63;61.13;;;16.60;99.90;;;;;;4900110;29;20048;-93
2022/10/30 22:07:02;;;;;;;146.18;62.63;;;16.60;99.90;;;;;;4886566;29;20027;-95
2022/10/30 22:09:28;;;;;;;146.70;60.60;;;16.50;99.90;;;;;;4886579;29;20032;-92
2022/10/30 22:11:55;;;;;;;147.77;62.08;;;16.50;99.90;;;;;;4886348;29;20080;-94
2022/10/30 22:14:23;;;;;;;153.25;61.25;;;16.50;99.90;;;;;;4887474;29;20374;-92
2022/10/30 22:16:50;;;;;;;140.20;59.65;;;16.40;99.90;;;;;;4886679;29;20051;-95
2022/10/30 22:19:17;;;;;;;151.70;62.90;;;16.40;99.90;;;;;;4886198;29;20031;-93
2022/10/30 22:21:43;;;;;;;140.52;58.30;;;16.30;99.90;;;;;;4886177;29;20092;-93
2022/10/30 22:24:11;;;;;;;175.60;64.07;;;16.20;99.90;;;;;;4887110;29;20047;-93
2022/10/30 22:26:57;;;;;;;173.85;63.80;;;16.20;99.90;;;;;;4886441;29;20038;-93
2022/10/30 22:29:23;;;;;;;231.75;69.47;;;16.20;99.90;;;;;;4886354;29;20553;-95
2022/10/30 22:31:50;;;;;;;248.75;72.68;;;16.20;99.90;;;;;;4886435;29;20035;-92
2022/10/30 22:34:16;;;;;;;212.63;70.72;;;16.20;99.90;;;;;;4878761;29;20088;-91
2022/10/30 22:39:17;;;;;;;185.68;69.32;;;16.10;99.90;;;;;;4917497;29;20052;-93
2022/10/30 22:41:44;;;;;;;178.38;70.20;;;16.10;99.90;;;;;;4885962;29;20063;-91
2022/10/30 22:44:13;;;;;;;166.23;68.05;;;16.10;99.90;;;;;;4886011;29;20063;-91
2022/10/30 22:46:40;;;;;;;178.27;71.18;;;16.20;99.90;;;;;;4885639;29;20027;-93
2022/10/30 22:49:08;;;;;;;170.45;70.25;;;16.20;99.90;;;;;;4886070;29;20032;-94
2022/10/30 22:51:37;;;;;;;163.60;68.20;;;16.30;99.90;;;;;;4904636;29;20032;-91
2022/10/30 22:54:11;;;;;;;163.90;69.68;;;16.30;99.90;;;;;;4920552;29;20028;-90
2022/10/30 22:56:39;;;;;;;182.32;73.53;;;16.30;99.90;;;;;;4920263;29;20508;-93
2022/10/30 22:59:14;;;;;;;167.65;69.22;;;16.40;99.90;;;;;;4904485;29;20058;-91
2022/10/30 23:01:44;;;;;;;169.27;72.43;;;16.40;99.90;;;;;;4920939;29;20098;-94
2022/10/30 23:04:14;;;;;;;176.15;70.40;;;16.40;99.90;;;;;;4904556;29;20122;-92
2022/10/30 23:06:47;;;;;;;157.02;66.38;;;16.40;99.90;;;;;;4904316;29;20039;-93
2022/10/30 23:09:20;;;;;;;165.40;73.63;;;16.50;99.90;;;;;;4904488;29;20046;-93
2022/10/30 23:11:46;;;;;;;175.93;70.68;;;16.50;99.90;;;;;;4904627;29;20110;-93
2022/10/30 23:14:14;;;;;;;166.85;71.85;;;16.50;99.90;;;;;;4920040;29;20027;-93
2022/10/30 23:16:41;;;;;;;176.90;72.88;;;16.50;99.90;;;;;;4904617;29;20034;-92
2022/10/30 23:19:09;;;;;;;173.85;73.05;;;16.60;99.90;;;;;;4904227;29;20031;-94
2022/10/30 23:21:53;;;;;;;202.18;74.32;;;16.60;99.90;;;;;;4905541;29;20095;-92
2022/10/30 23:24:29;;;;;;;176.65;72.22;;;16.60;99.90;;;;;;4895763;29;20115;-92
2022/10/30 23:27:06;;;;;;;191.93;73.72;;;16.60;99.90;;;;;;4920377;29;20119;-93
2022/10/30 23:30:09;;;;;;;194.20;73.78;;;16.60;99.90;;;;;;4906915;29;20032;-93
2022/10/30 23:43:22;;;;;;;;;;;;;;;;;;;;;
2022/10/30 23:46:23;;;;;;;226.75;74.05;;;16.50;99.90;;;;;;5198537;23;20055;-92
2022/10/30 23:48:55;;;;;;;207.23;74.82;;;16.50;99.90;;;;;;4901103;24;20056;-94
2022/10/30 23:56:48;;;;;;;206.35;72.72;;;16.50;99.90;;;;;;4920152;29;20059;-93
2022/10/30 23:59:21;;;;;;;212.68;74.20;;;16.50;99.90;;;;;;4920648;29;20032;-93
